Etusivu
METAR-TAF:

METAR-TAF

Lentoasemat :

Huippuvuorten lentoasema

Longyearbyen, Norja

Leveyspiiri: 78-15N, Pituuspiiri: 015-28E, korkeus merenpinnasta: 2 m

Tämänhetkinen sää

Tämä raportti tehtiin 17 minuuttia sitten, kello 14.50 UTC
Tuuli 5 kn lännestä
Lämpötila 5°C
Kosteus 70%
Ilmanpaine 1015 hPa
Näkyvyys 10 km tai enemmän
Hajonneita pilviä 3000 ft:n korkeudessa

METAR: ENSB 151450Z 26005KT 9999 BKN030 05/M00 Q1015 RMK WIND 1400FT 30004KT

Aika: 17:07 (15:07 UTC)

Sääennuste

Tämä raportti tehtiin 4 tuntia ja 7 minuuttia sitten, kello 11.00 UTC
Ennuste voimassa 15. päivästä klo 12 UTC - 16. päivään klo 12 UTC
Tuuli 8 kn lännestä
Näkyvyys 10 km tai enemmän
Hajanaisia pilviä 2500 ft:n korkeudessa
Tulossa
15. päivästä klo 23 UTC - 16. päivään klo 01 UTC
Tuuli 10 kn idästä/kaakosta

TAF: ENSB 151100Z 1512/1612 27008KT 9999 SCT025 BECMG 1523/1601 12010KT

Säähavainnot ja -ennusteet yli 4000 lentoasemalta (METAR- ja TAF-raportit).

Käytössä olevat sääasemat on merkitty karttaan keltaisilla ja punaisilla pisteillä.

Aseta hiiri pisteen päälle nähdäksesi sääaseman nimen.

Klikkaa sitten nähdäksesi säähavainnot ja -ennusteet.

Kartan vaihtaminen: klikkaa mustalla rastilla varustettuja vihreitä pisteitä, niin voit zoomata sisään; viivalla varustettua vihreää pistettä, niin voit zoomata ulos tai vihreitä nuolia, niin pääset viereisille kartoille.


METAR-TAF: